Time,TemperatureF,DewpointF,PressureIn,WindDirection,WindDirectionDegrees,WindSpeedMPH,WindSpeedGustMPH,Humidity,HourlyPrecipIn,Conditions,Clouds,dailyrainin,SoftwareType,DateUTC
2013-05-05 00:04:00,57.2,56.6,29.93,ESE,112,0.0,-999.0,98,-99.99,,,0.00,Acu-Link.com,2013-05-05 05:04:00,
2013-05-05 00:19:00,57.0,56.4,29.92,ESE,112,0.0,-999.0,98,-99.99,,,0.00,Acu-Link.com,2013-05-05 05:19:00,
2013-05-05 00:34:00,57.0,56.4,29.92,ESE,112,0.0,-999.0,98,-99.99,,,0.00,Acu-Link.com,2013-05-05 05:34:00,
2013-05-05 00:49:00,57.0,56.4,29.92,NE,45,0.0,-999.0,98,-99.99,,,0.00,Acu-Link.com,2013-05-05 05:49:00,
2013-05-05 01:04:00,57.7,57.1,29.92,East,90,0.0,-999.0,98,-99.99,,,0.00,Acu-Link.com,2013-05-05 06:04:00,
2013-05-05 01:19:00,57.9,57.3,29.93,East,90,0.0,-999.0,98,-99.99,,,0.00,Acu-Link.com,2013-05-05 06:19:00,
2013-05-05 01:35:00,58.3,57.7,29.93,East,90,0.0,-999.0,98,-99.99,,,0.00,Acu-Link.com,2013-05-05 06:35:00,
2013-05-05 01:50:00,58.5,57.9,29.92,NE,45,2.2,-999.0,98,-99.99,,,0.00,Acu-Link.com,2013-05-05 06:50:00,
2013-05-05 02:06:00,58.5,57.9,29.91,NE,45,0.0,-999.0,98,-99.99,,,0.00,Acu-Link.com,2013-05-05 07:06:00,
2013-05-05 02:21:00,58.5,57.9,29.91,ENE,67,0.0,-999.0,98,-99.99,,,0.00,Acu-Link.com,2013-05-05 07:21:00,
2013-05-05 02:36:00,58.5,57.9,29.91,ENE,67,0.0,-999.0,98,-99.99,,,0.00,Acu-Link.com,2013-05-05 07:36:00,
2013-05-05 02:51:00,58.5,57.9,29.90,NE,45,2.7,-999.0,98,-99.99,,,0.00,Acu-Link.com,2013-05-05 07:51:00,
2013-05-05 03:07:00,58.5,57.9,29.89,ENE,67,0.0,-999.0,98,-99.99,,,0.00,Acu-Link.com,2013-05-05 08:07:00,
2013-05-05 03:22:00,58.3,57.7,29.90,ENE,67,0.0,-999.0,98,-99.99,,,0.00,Acu-Link.com,2013-05-05 08:22:00,
2013-05-05 03:37:00,58.3,57.7,29.90,NNE,22,0.0,-999.0,98,-99.99,,,0.00,Acu-Link.com,2013-05-05 08:37:00,
2013-05-05 03:52:00,58.5,57.9,29.89,NE,45,0.0,-999.0,98,-99.99,,,0.00,Acu-Link.com,2013-05-05 08:52:00,
2013-05-05 04:07:00,58.6,58.0,29.88,NNW,337,0.0,-999.0,98,-99.99,,,0.00,Acu-Link.com,2013-05-05 09:07:00,
2013-05-05 04:23:00,58.6,58.0,29.88,WNW,292,0.0,-999.0,98,-99.99,,,0.00,Acu-Link.com,2013-05-05 09:23:00,
2013-05-05 04:38:00,58.5,57.9,29.87,NW,315,2.2,-999.0,98,-99.99,,,0.00,Acu-Link.com,2013-05-05 09:38:00,
2013-05-05 04:53:00,58.3,57.7,29.86,NNW,337,0.0,-999.0,98,-99.99,,,0.00,Acu-Link.com,2013-05-05 09:53:00,
2013-05-05 05:08:00,57.9,57.3,29.86,NNE,22,2.7,-999.0,98,-99.99,,,0.00,Acu-Link.com,2013-05-05 10:08:00,
2013-05-05 05:23:00,57.6,57.0,29.87,NE,45,0.0,-999.0,98,-99.99,,,0.00,Acu-Link.com,2013-05-05 10:23:00,
2013-05-05 05:38:00,58.1,57.5,29.87,North,0,1.7,-999.0,98,-99.99,,,0.00,Acu-Link.com,2013-05-05 10:38:00,
2013-05-05 05:53:00,58.1,57.5,29.87,West,270,0.0,-999.0,98,-99.99,,,0.00,Acu-Link.com,2013-05-05 10:53:00,
2013-05-05 06:08:00,58.1,57.5,29.88,SSE,157,0.0,-999.0,98,-99.99,,,0.00,Acu-Link.com,2013-05-05 11:08:00,
2013-05-05 06:23:00,58.1,57.5,29.86,NE,45,0.0,-999.0,98,-99.99,,,0.00,Acu-Link.com,2013-05-05 11:23:00,
2013-05-05 06:39:00,58.1,57.5,29.86,NNE,22,2.2,-999.0,98,-99.99,,,0.00,Acu-Link.com,2013-05-05 11:39:00,
2013-05-05 06:54:00,58.1,57.5,29.85,NW,315,4.2,-999.0,98,-99.99,,,0.00,Acu-Link.com,2013-05-05 11:54:00,
2013-05-05 07:09:00,58.3,57.7,29.84,NE,45,4.2,-999.0,98,-99.99,,,0.00,Acu-Link.com,2013-05-05 12:09:00,
2013-05-05 07:24:00,57.9,57.3,29.85,NE,45,8.9,-999.0,98,-99.99,,,0.00,Acu-Link.com,2013-05-05 12:24:00,
2013-05-05 07:39:00,57.7,57.1,29.86,NNW,337,8.3,-999.0,98,-99.99,,,0.00,Acu-Link.com,2013-05-05 12:39:00,
2013-05-05 07:54:00,57.7,57.1,29.86,NE,45,7.3,-999.0,98,-99.99,,,0.00,Acu-Link.com,2013-05-05 12:54:00,
2013-05-05 08:09:00,57.9,57.3,29.86,ENE,67,7.3,-999.0,98,-99.99,,,0.00,Acu-Link.com,2013-05-05 13:09:00,
2013-05-05 08:24:00,58.3,57.7,29.87,ENE,67,6.3,-999.0,98,-99.99,,,0.00,Acu-Link.com,2013-05-05 13:24:00,
2013-05-05 08:39:00,58.8,58.2,29.87,ENE,67,4.2,-999.0,98,-99.99,,,0.00,Acu-Link.com,2013-05-05 13:39:00,
2013-05-05 08:55:00,59.2,58.6,29.87,West,270,7.3,-999.0,98,-99.99,,,0.00,Acu-Link.com,2013-05-05 13:55:00,
2013-05-05 09:10:00,59.4,58.8,29.87,ENE,67,4.2,-999.0,98,-99.99,,,0.00,Acu-Link.com,2013-05-05 14:10:00,
2013-05-05 09:25:00,59.2,58.6,29.86,NW,315,4.2,-999.0,98,-99.99,,,0.00,Acu-Link.com,2013-05-05 14:25:00,
2013-05-05 09:40:00,61.2,60.6,29.86,ESE,112,4.2,-999.0,98,-99.99,,,0.00,Acu-Link.com,2013-05-05 14:40:00,
2013-05-05 09:55:00,61.7,61.1,29.86,NE,45,4.2,-999.0,98,-99.99,,,0.00,Acu-Link.com,2013-05-05 14:55:00,
2013-05-05 10:10:00,61.5,60.9,29.87,ESE,112,5.3,-999.0,98,-99.99,,,0.00,Acu-Link.com,2013-05-05 15:10:00,
2013-05-05 10:25:00,60.4,59.8,29.88,SSE,157,7.8,-999.0,98,-99.99,,,0.00,Acu-Link.com,2013-05-05 15:25:00,
2013-05-05 10:40:00,59.9,59.3,29.86,ENE,67,5.8,-999.0,98,-99.99,,,0.00,Acu-Link.com,2013-05-05 15:40:00,
2013-05-05 10:55:00,61.0,60.4,29.86,ENE,67,5.3,-999.0,98,-99.99,,,0.00,Acu-Link.com,2013-05-05 15:55:00,
2013-05-05 11:11:00,61.2,60.6,29.85,ENE,67,3.7,-999.0,98,-99.99,,,0.00,Acu-Link.com,2013-05-05 16:11:00,
2013-05-05 11:26:00,63.0,62.4,29.85,WNW,292,3.7,-999.0,98,-99.99,,,0.00,Acu-Link.com,2013-05-05 16:26:00,
2013-05-05 11:41:00,63.9,63.3,29.84,East,90,7.3,-999.0,98,-99.99,,,0.00,Acu-Link.com,2013-05-05 16:41:00,
2013-05-05 11:56:00,64.9,64.3,29.84,WSW,247,5.8,-999.0,98,-99.99,,,0.00,Acu-Link.com,2013-05-05 16:56:00,
2013-05-05 12:11:00,65.1,64.5,29.85,ENE,67,5.3,-999.0,98,-99.99,,,0.00,Acu-Link.com,2013-05-05 17:11:00,
2013-05-05 12:26:00,64.8,64.2,29.84,East,90,6.3,-999.0,98,-99.99,,,0.00,Acu-Link.com,2013-05-05 17:26:00,
2013-05-05 12:41:00,63.0,62.4,29.84,ESE,112,3.7,-999.0,98,-99.99,,,0.00,Acu-Link.com,2013-05-05 17:41:00,
2013-05-05 12:56:00,65.5,64.9,29.84,East,90,3.2,-999.0,98,-99.99,,,0.00,Acu-Link.com,2013-05-05 17:56:00,
2013-05-05 13:11:00,68.0,67.4,29.83,ESE,112,7.3,-999.0,98,-99.99,,,0.00,Acu-Link.com,2013-05-05 18:11:00,
2013-05-05 13:27:00,68.0,67.4,29.83,SE,135,7.3,-999.0,98,-99.99,,,0.00,Acu-Link.com,2013-05-05 18:27:00,
2013-05-05 13:42:00,68.0,67.4,29.82,SSE,157,8.3,-999.0,98,-99.99,,,0.00,Acu-Link.com,2013-05-05 18:42:00,
2013-05-05 13:58:00,68.5,67.9,29.82,SSE,157,5.8,-999.0,98,-99.99,,,0.00,Acu-Link.com,2013-05-05 18:58:00,
2013-05-05 14:13:00,68.0,67.4,29.82,East,90,7.3,-999.0,98,-99.99,,,0.00,Acu-Link.com,2013-05-05 19:13:00,
2013-05-05 14:28:00,67.1,66.5,29.82,ESE,112,6.3,-999.0,98,-99.99,,,0.00,Acu-Link.com,2013-05-05 19:28:00,
2013-05-05 14:44:00,66.2,65.6,29.82,East,90,8.3,-999.0,98,-99.99,,,0.00,Acu-Link.com,2013-05-05 19:44:00,
2013-05-05 14:59:00,65.8,65.2,29.81,SSE,157,4.7,-999.0,98,-99.99,,,0.00,Acu-Link.com,2013-05-05 19:59:00,
2013-05-05 15:14:00,65.3,64.7,29.82,ESE,112,6.8,-999.0,98,-99.99,,,0.00,Acu-Link.com,2013-05-05 20:14:00,
2013-05-05 15:30:00,64.4,63.8,29.82,ESE,112,10.4,-999.0,98,-99.99,,,0.00,Acu-Link.com,2013-05-05 20:30:00,
2013-05-05 15:46:00,63.1,62.5,29.83,ENE,67,9.9,-999.0,98,-99.99,,,0.00,Acu-Link.com,2013-05-05 20:46:00,
2013-05-05 16:01:00,63.1,62.5,29.82,ESE,112,7.8,-999.0,98,-99.99,,,0.00,Acu-Link.com,2013-05-05 21:01:00,
2013-05-05 16:16:00,62.6,62.0,29.82,SSE,157,4.7,-999.0,98,-99.99,,,0.00,Acu-Link.com,2013-05-05 21:16:00,
2013-05-05 16:32:00,62.1,61.5,29.83,South,180,5.3,-999.0,98,-99.99,,,0.00,Acu-Link.com,2013-05-05 21:32:00,
2013-05-05 16:47:00,61.5,60.9,29.83,SE,135,5.3,-999.0,98,-99.99,,,0.00,Acu-Link.com,2013-05-05 21:47:00,
2013-05-05 17:04:00,62.1,61.5,29.82,ESE,112,5.3,-999.0,98,-99.99,,,0.00,Acu-Link.com,2013-05-05 22:04:00,
2013-05-05 17:19:00,62.4,61.8,29.81,SE,135,4.7,-999.0,98,-99.99,,,0.00,Acu-Link.com,2013-05-05 22:19:00,
2013-05-05 17:34:00,62.4,61.8,29.81,ESE,112,2.7,-999.0,98,-99.99,,,0.00,Acu-Link.com,2013-05-05 22:34:00,
2013-05-05 17:49:00,62.2,61.6,29.81,SE,135,2.7,-999.0,98,-99.99,,,0.00,Acu-Link.com,2013-05-05 22:49:00,
2013-05-05 18:04:00,62.1,61.5,29.82,ENE,67,2.7,-999.0,98,-99.99,,,0.00,Acu-Link.com,2013-05-05 23:04:00,
2013-05-05 18:29:00,61.0,60.4,29.83,ESE,112,6.3,-999.0,98,-99.99,,,0.00,Acu-Link.com,2013-05-05 23:29:00,
2013-05-05 18:45:00,60.4,59.8,29.83,ESE,112,8.3,-999.0,98,-99.99,,,0.00,Acu-Link.com,2013-05-05 23:45:00,
2013-05-05 19:01:00,60.3,59.7,29.84,ESE,112,8.9,-999.0,98,-99.99,,,0.00,Acu-Link.com,2013-05-06 00:01:00,
2013-05-05 19:17:00,59.7,59.1,29.85,SE,135,4.7,-999.0,98,-99.99,,,0.00,Acu-Link.com,2013-05-06 00:17:00,
2013-05-05 19:32:00,59.2,58.6,29.85,SE,135,0.0,-999.0,98,-99.99,,,0.00,Acu-Link.com,2013-05-06 00:32:00,
2013-05-05 19:47:00,58.6,58.0,29.86,SSE,157,2.2,-999.0,98,-99.99,,,0.00,Acu-Link.com,2013-05-06 00:47:00,
2013-05-05 20:02:00,58.5,57.9,29.86,SE,135,0.0,-999.0,98,-99.99,,,0.00,Acu-Link.com,2013-05-06 01:02:00,
2013-05-05 20:18:00,58.5,57.9,29.86,ESE,112,6.8,-999.0,98,-99.99,,,0.00,Acu-Link.com,2013-05-06 01:18:00,
2013-05-05 20:33:00,58.3,57.7,29.87,SSE,157,5.3,-999.0,98,-99.99,,,0.00,Acu-Link.com,2013-05-06 01:33:00,
2013-05-05 20:48:00,57.6,57.0,29.87,SE,135,9.4,-999.0,98,-99.99,,,0.00,Acu-Link.com,2013-05-06 01:48:00,
2013-05-05 21:03:00,55.9,55.3,29.88,East,90,7.8,-999.0,98,-99.99,,,0.00,Acu-Link.com,2013-05-06 02:03:00,
2013-05-05 21:18:00,55.8,55.2,29.89,SE,135,6.8,-999.0,98,-99.99,,,0.00,Acu-Link.com,2013-05-06 02:18:00,
2013-05-05 21:33:00,56.1,55.5,29.89,SSE,157,0.0,-999.0,98,-99.99,,,0.00,Acu-Link.com,2013-05-06 02:33:00,
2013-05-05 21:48:00,56.3,55.7,29.89,SE,135,1.1,-999.0,98,-99.99,,,0.00,Acu-Link.com,2013-05-06 02:48:00,
2013-05-05 22:03:00,56.3,55.7,29.88,SSW,202,0.0,-999.0,98,-99.99,,,0.00,Acu-Link.com,2013-05-06 03:03:00,
2013-05-05 22:19:00,56.3,55.7,29.89,WSW,247,0.0,-999.0,98,-99.99,,,0.00,Acu-Link.com,2013-05-06 03:19:00,
2013-05-05 22:34:00,56.1,55.5,29.88,East,90,0.0,-999.0,98,-99.99,,,0.00,Acu-Link.com,2013-05-06 03:34:00,
2013-05-05 22:49:00,55.8,55.2,29.87,West,270,0.0,-999.0,98,-99.99,,,0.00,Acu-Link.com,2013-05-06 03:49:00,
2013-05-05 23:04:00,55.9,55.3,29.87,WNW,292,0.0,-999.0,98,-99.99,,,0.00,Acu-Link.com,2013-05-06 04:04:00,
2013-05-05 23:19:00,56.1,55.5,29.87,NNE,22,0.0,-999.0,98,-99.99,,,0.00,Acu-Link.com,2013-05-06 04:19:00,
2013-05-05 23:34:00,56.7,56.1,29.89,South,180,0.0,-999.0,98,-99.99,,,0.00,Acu-Link.com,2013-05-06 04:34:00,
2013-05-05 23:49:00,56.5,55.9,29.88,ENE,67,1.1,-999.0,98,-99.99,,,0.00,Acu-Link.com,2013-05-06 04:49:00,